sensor_id;sensor_type;location;lat;lon;timestamp;pressure;altitude;pressure_sealevel;temperature;humidity
11643;BME280;5877;50.930;6.918;2022-10-16T00:01:27;100533.72;;;14.21;75.70
11643;BME280;5877;50.930;6.918;2022-10-16T00:03:55;100321.00;;;12.73;75.52
11643;BME280;5877;50.930;6.918;2022-10-16T00:06:22;100459.50;;;13.61;75.82
11643;BME280;5877;50.930;6.918;2022-10-16T00:08:49;100494.00;;;13.71;75.98
11643;BME280;5877;50.930;6.918;2022-10-16T00:11:19;100499.00;;;13.84;76.08
11643;BME280;5877;50.930;6.918;2022-10-16T00:13:48;100579.25;;;14.28;75.98
11643;BME280;5877;50.930;6.918;2022-10-16T00:16:16;100575.47;;;14.24;76.19
11643;BME280;5877;50.930;6.918;2022-10-16T00:18:43;100395.69;;;13.07;76.27
11643;BME280;5877;50.930;6.918;2022-10-16T00:21:13;100444.56;;;13.38;76.49
11643;BME280;5877;50.930;6.918;2022-10-16T00:23:40;100540.16;;;13.85;76.56
11643;BME280;5877;50.930;6.918;2022-10-16T00:26:10;100588.72;;;14.13;76.57
11643;BME280;5877;50.930;6.918;2022-10-16T00:28:38;100494.63;;;13.50;76.65
11643;BME280;5877;50.930;6.918;2022-10-16T00:31:12;100550.50;;;13.87;76.62
11643;BME280;5877;50.930;6.918;2022-10-16T00:33:39;100413.81;;;13.04;76.48
11643;BME280;5877;50.930;6.918;2022-10-16T00:36:09;100583.34;;;14.08;76.53
11643;BME280;5877;50.930;6.918;2022-10-16T00:38:36;100578.22;;;14.01;76.77
11643;BME280;5877;50.930;6.918;2022-10-16T00:41:05;100214.50;;;11.77;76.99
11643;BME280;5877;50.930;6.918;2022-10-16T00:43:53;100205.31;;;11.56;77.03
11643;BME280;5877;50.930;6.918;2022-10-16T00:46:23;100210.91;;;11.48;76.94
11643;BME280;5877;50.930;6.918;2022-10-16T00:51:25;100488.50;;;13.21;77.25
11643;BME280;5877;50.930;6.918;2022-10-16T00:53:55;100578.03;;;13.79;77.28
11643;BME280;5877;50.930;6.918;2022-10-16T00:56:21;100201.84;;;11.32;77.22
11643;BME280;5877;50.930;6.918;2022-10-16T00:58:48;100438.03;;;12.89;77.75
11643;BME280;5877;50.930;6.918;2022-10-16T01:01:15;100556.53;;;13.59;77.95
11643;BME280;5877;50.930;6.918;2022-10-16T01:03:41;100578.06;;;13.68;77.86
11643;BME280;5877;50.930;6.918;2022-10-16T01:06:36;100582.53;;;13.67;77.97
11643;BME280;5877;50.930;6.918;2022-10-16T01:09:22;100374.16;;;12.35;78.08
11643;BME280;5877;50.930;6.918;2022-10-16T01:12:01;100560.31;;;13.51;78.02
11643;BME280;5877;50.930;6.918;2022-10-16T01:17:28;100446.28;;;12.69;78.25
11643;BME280;5877;50.930;6.918;2022-10-16T01:22:53;100593.47;;;13.47;78.65
11643;BME280;5877;50.930;6.918;2022-10-16T01:28:34;100471.13;;;12.61;78.38
11643;BME280;5877;50.930;6.918;2022-10-16T01:31:03;100563.31;;;13.31;78.44
11643;BME280;5877;50.930;6.918;2022-10-16T01:33:37;100562.88;;;13.35;78.43
11643;BME280;5877;50.930;6.918;2022-10-16T01:36:13;100489.69;;;12.90;78.51
11643;BME280;5877;50.930;6.918;2022-10-16T01:38:43;100400.00;;;12.15;78.62
11643;BME280;5877;50.930;6.918;2022-10-16T01:41:19;100593.69;;;13.34;79.12
11643;BME280;5877;50.930;6.918;2022-10-16T01:44:04;100468.25;;;12.51;78.69
11643;BME280;5877;50.930;6.918;2022-10-16T01:46:34;100597.13;;;13.35;78.54
11643;BME280;5877;50.930;6.918;2022-10-16T01:49:03;100491.94;;;12.63;78.96
11643;BME280;5877;50.930;6.918;2022-10-16T01:51:32;100594.63;;;13.28;79.07
11643;BME280;5877;50.930;6.918;2022-10-16T01:54:01;100506.94;;;12.62;79.25
11643;BME280;5877;50.930;6.918;2022-10-16T01:56:29;100566.75;;;12.97;79.13
11643;BME280;5877;50.930;6.918;2022-10-16T01:59:00;100504.88;;;12.64;79.21
11643;BME280;5877;50.930;6.918;2022-10-16T02:01:29;100558.03;;;13.08;79.04
11643;BME280;5877;50.930;6.918;2022-10-16T02:04:00;100578.91;;;13.21;78.51
11643;BME280;5877;50.930;6.918;2022-10-16T02:06:28;100610.88;;;13.48;78.63
11643;BME280;5877;50.930;6.918;2022-10-16T02:08:55;100463.78;;;12.52;77.86
11643;BME280;5877;50.930;6.918;2022-10-16T02:11:22;100608.69;;;13.57;77.91
11643;BME280;5877;50.930;6.918;2022-10-16T02:13:53;100447.53;;;12.55;77.74
11643;BME280;5877;50.930;6.918;2022-10-16T02:16:33;100483.59;;;12.78;77.52
11643;BME280;5877;50.930;6.918;2022-10-16T02:19:00;100619.00;;;13.70;77.07
11643;BME280;5877;50.930;6.918;2022-10-16T02:21:37;100543.72;;;13.27;76.87
11643;BME280;5877;50.930;6.918;2022-10-16T02:26:51;100523.09;;;13.13;76.92
11643;BME280;5877;50.930;6.918;2022-10-16T02:29:22;100549.44;;;13.36;76.80
11643;BME280;5877;50.930;6.918;2022-10-16T02:31:55;100576.94;;;13.52;76.57
11643;BME280;5877;50.930;6.918;2022-10-16T02:34:25;100599.63;;;13.64;76.06
11643;BME280;5877;50.930;6.918;2022-10-16T02:36:53;100561.13;;;13.52;76.09
11643;BME280;5877;50.930;6.918;2022-10-16T02:39:21;100575.56;;;13.49;75.83
11643;BME280;5877;50.930;6.918;2022-10-16T02:41:48;100546.72;;;13.31;75.77
11643;BME280;5877;50.930;6.918;2022-10-16T02:44:15;100509.00;;;13.19;75.63
11643;BME280;5877;50.930;6.918;2022-10-16T02:46:41;100631.47;;;13.86;75.26
11643;BME280;5877;50.930;6.918;2022-10-16T02:49:08;100584.94;;;13.69;75.09
11643;BME280;5877;50.930;6.918;2022-10-16T02:51:34;100562.16;;;13.51;74.83
11643;BME280;5877;50.930;6.918;2022-10-16T02:54:02;100589.41;;;13.68;75.15
11643;BME280;5877;50.930;6.918;2022-10-16T02:56:28;100630.31;;;13.94;74.81
11643;BME280;5877;50.930;6.918;2022-10-16T02:58:56;100578.66;;;13.58;74.47
11643;BME280;5877;50.930;6.918;2022-10-16T03:01:26;100601.56;;;13.69;74.71
11643;BME280;5877;50.930;6.918;2022-10-16T03:03:53;100454.28;;;12.86;74.37
11643;BME280;5877;50.930;6.918;2022-10-16T03:06:19;100436.31;;;12.71;74.42
11643;BME280;5877;50.930;6.918;2022-10-16T03:08:46;100407.59;;;12.46;74.66
11643;BME280;5877;50.930;6.918;2022-10-16T03:11:13;100528.38;;;13.24;74.96
11643;BME280;5877;50.930;6.918;2022-10-16T03:13:39;100611.09;;;13.70;74.72
11643;BME280;5877;50.930;6.918;2022-10-16T03:16:06;100526.19;;;13.21;75.19
11643;BME280;5877;50.930;6.918;2022-10-16T03:18:32;100589.22;;;13.46;75.46
11643;BME280;5877;50.930;6.918;2022-10-16T03:20:59;100547.84;;;13.12;75.49
11643;BME280;5877;50.930;6.918;2022-10-16T03:23:26;100581.53;;;13.33;75.76
11643;BME280;5877;50.930;6.918;2022-10-16T03:25:53;100540.72;;;13.00;76.10
11643;BME280;5877;50.930;6.918;2022-10-16T03:28:20;100403.19;;;12.05;76.11
11643;BME280;5877;50.930;6.918;2022-10-16T03:30:47;100622.00;;;13.39;76.28
11643;BME280;5877;50.930;6.918;2022-10-16T03:33:13;100621.44;;;13.37;76.30
11643;BME280;5877;50.930;6.918;2022-10-16T03:35:40;100558.59;;;13.10;76.55
11643;BME280;5877;50.930;6.918;2022-10-16T03:38:07;100607.00;;;13.39;76.26
11643;BME280;5877;50.930;6.918;2022-10-16T03:40:33;100603.66;;;13.44;75.84
11643;BME280;5877;50.930;6.918;2022-10-16T03:43:00;100305.41;;;11.55;75.62
11643;BME280;5877;50.930;6.918;2022-10-16T03:45:27;100475.13;;;12.64;75.37
11643;BME280;5877;50.930;6.918;2022-10-16T03:47:54;100493.22;;;12.72;75.52
11643;BME280;5877;50.930;6.918;2022-10-16T03:50:21;100618.78;;;13.60;75.19
11643;BME280;5877;50.930;6.918;2022-10-16T03:52:47;100593.25;;;13.37;75.36
11643;BME280;5877;50.930;6.918;2022-10-16T03:55:14;100615.91;;;13.61;74.99
11643;BME280;5877;50.930;6.918;2022-10-16T03:57:41;100637.81;;;13.62;75.07
11643;BME280;5877;50.930;6.918;2022-10-16T04:00:08;100652.72;;;13.68;74.82
11643;BME280;5877;50.930;6.918;2022-10-16T04:02:38;100658.91;;;13.74;74.42
11643;BME280;5877;50.930;6.918;2022-10-16T04:05:05;100591.41;;;13.38;74.09
11643;BME280;5877;50.930;6.918;2022-10-16T04:07:32;100603.09;;;13.53;73.97
11643;BME280;5877;50.930;6.918;2022-10-16T04:09:58;100545.44;;;13.10;74.41
11643;BME280;5877;50.930;6.918;2022-10-16T04:12:26;100642.16;;;13.80;74.50
11643;BME280;5877;50.930;6.918;2022-10-16T04:14:53;100641.34;;;13.79;74.62
11643;BME280;5877;50.930;6.918;2022-10-16T04:17:19;100523.09;;;13.01;74.54
11643;BME280;5877;50.930;6.918;2022-10-16T04:19:46;100385.13;;;12.09;74.39
11643;BME280;5877;50.930;6.918;2022-10-16T04:22:13;100653.97;;;13.77;74.92
11643;BME280;5877;50.930;6.918;2022-10-16T04:24:39;100665.09;;;13.79;74.87
11643;BME280;5877;50.930;6.918;2022-10-16T04:27:06;100492.88;;;12.68;74.80
11643;BME280;5877;50.930;6.918;2022-10-16T04:29:32;100410.28;;;12.05;75.01
11643;BME280;5877;50.930;6.918;2022-10-16T04:31:59;100567.88;;;13.01;75.43
11643;BME280;5877;50.930;6.918;2022-10-16T04:34:26;100662.13;;;13.64;75.23
11643;BME280;5877;50.930;6.918;2022-10-16T04:36:52;100505.13;;;12.63;75.73
11643;BME280;5877;50.930;6.918;2022-10-16T04:39:19;100631.19;;;13.36;75.39
11643;BME280;5877;50.930;6.918;2022-10-16T04:41:45;100570.88;;;12.93;75.72
11643;BME280;5877;50.930;6.918;2022-10-16T04:44:12;100493.88;;;12.44;76.21
11643;BME280;5877;50.930;6.918;2022-10-16T04:46:39;100613.06;;;13.16;76.13
11643;BME280;5877;50.930;6.918;2022-10-16T04:49:05;100394.59;;;11.68;76.08
11643;BME280;5877;50.930;6.918;2022-10-16T04:51:32;100596.28;;;13.11;76.41
11643;BME280;5877;50.930;6.918;2022-10-16T04:53:59;100497.38;;;12.26;76.02
11643;BME280;5877;50.930;6.918;2022-10-16T04:56:26;100577.97;;;12.81;76.39
11643;BME280;5877;50.930;6.918;2022-10-16T04:58:53;100512.19;;;12.51;76.13
11643;BME280;5877;50.930;6.918;2022-10-16T05:01:19;100379.38;;;11.58;76.38
11643;BME280;5877;50.930;6.918;2022-10-16T05:03:46;100691.59;;;13.49;76.51
11643;BME280;5877;50.930;6.918;2022-10-16T05:06:12;100699.28;;;13.51;76.80
11643;BME280;5877;50.930;6.918;2022-10-16T05:08:39;100556.41;;;12.60;76.67
11643;BME280;5877;50.930;6.918;2022-10-16T05:11:06;100559.28;;;12.71;76.75
11643;BME280;5877;50.930;6.918;2022-10-16T05:13:32;100336.78;;;11.38;76.43
11643;BME280;5877;50.930;6.918;2022-10-16T05:15:59;100575.13;;;12.94;76.64
11643;BME280;5877;50.930;6.918;2022-10-16T05:18:25;100701.69;;;13.76;76.14
11643;BME280;5877;50.930;6.918;2022-10-16T05:20:52;100474.72;;;12.25;76.16
11643;BME280;5877;50.930;6.918;2022-10-16T05:23:19;100652.38;;;13.53;75.93
11643;BME280;5877;50.930;6.918;2022-10-16T05:25:55;100707.06;;;13.92;76.12
11643;BME280;5877;50.930;6.918;2022-10-16T05:28:25;100691.34;;;13.86;76.32
11643;BME280;5877;50.930;6.918;2022-10-16T05:30:52;100541.53;;;12.78;76.22
11643;BME280;5877;50.930;6.918;2022-10-16T05:33:24;100711.22;;;13.77;76.58
11643;BME280;5877;50.930;6.918;2022-10-16T05:35:51;100649.28;;;13.21;77.07
11643;BME280;5877;50.930;6.918;2022-10-16T05:38:18;100495.44;;;12.22;77.38
11643;BME280;5877;50.930;6.918;2022-10-16T05:40:51;100705.00;;;13.48;77.26
11643;BME280;5877;50.930;6.918;2022-10-16T05:43:19;100559.47;;;12.57;77.25
11643;BME280;5877;50.930;6.918;2022-10-16T05:46:05;100568.78;;;12.72;77.28
11643;BME280;5877;50.930;6.918;2022-10-16T05:48:32;100647.41;;;13.10;77.86
11643;BME280;5877;50.930;6.918;2022-10-16T05:51:01;100660.81;;;12.96;78.40
11643;BME280;5877;50.930;6.918;2022-10-16T05:53:29;100724.13;;;13.31;78.74
11643;BME280;5877;50.930;6.918;2022-10-16T05:55:57;100734.19;;;13.23;79.13
11643;BME280;5877;50.930;6.918;2022-10-16T05:58:24;100621.84;;;12.45;79.56
11643;BME280;5877;50.930;6.918;2022-10-16T06:00:55;100749.28;;;13.16;79.94
11643;BME280;5877;50.930;6.918;2022-10-16T06:03:23;100449.00;;;11.19;79.77
11643;BME280;5877;50.930;6.918;2022-10-16T06:05:50;100762.66;;;13.14;79.97
11643;BME280;5877;50.930;6.918;2022-10-16T06:08:17;100600.72;;;12.03;80.07
11643;BME280;5877;50.930;6.918;2022-10-16T06:10:46;100455.78;;;11.09;79.84
11643;BME280;5877;50.930;6.918;2022-10-16T06:13:13;100763.91;;;13.00;80.26
11643;BME280;5877;50.930;6.918;2022-10-16T06:15:42;100658.28;;;12.30;80.49
11643;BME280;5877;50.930;6.918;2022-10-16T06:18:09;100603.56;;;11.84;80.55
11643;BME280;5877;50.930;6.918;2022-10-16T06:20:37;100684.78;;;12.47;80.31
11643;BME280;5877;50.930;6.918;2022-10-16T06:23:04;100717.88;;;12.73;80.07
11643;BME280;5877;50.930;6.918;2022-10-16T06:25:31;100542.56;;;11.75;79.80
11643;BME280;5877;50.930;6.918;2022-10-16T06:27:58;100440.81;;;11.27;79.40
11643;BME280;5877;50.930;6.918;2022-10-16T06:30:24;100778.59;;;13.49;79.21
11643;BME280;5877;50.930;6.918;2022-10-16T06:32:51;100711.38;;;13.17;78.59
11643;BME280;5877;50.930;6.918;2022-10-16T06:35:18;100595.19;;;12.53;77.98
11643;BME280;5877;50.930;6.918;2022-10-16T06:37:44;100794.16;;;13.92;77.79
11643;BME280;5877;50.930;6.918;2022-10-16T06:40:11;100793.56;;;13.90;77.38
11643;BME280;5877;50.930;6.918;2022-10-16T06:42:38;100495.75;;;12.14;76.73
11643;BME280;5877;50.930;6.918;2022-10-16T06:45:04;100799.31;;;14.11;76.43
11643;BME280;5877;50.930;6.918;2022-10-16T06:47:34;100561.47;;;12.74;75.86
11643;BME280;5877;50.930;6.918;2022-10-16T06:50:02;100697.00;;;13.66;75.49
11643;BME280;5877;50.930;6.918;2022-10-16T06:52:30;100346.22;;;11.57;74.89
11643;BME280;5877;50.930;6.918;2022-10-16T06:54:56;100676.34;;;13.75;74.46
11643;BME280;5877;50.930;6.918;2022-10-16T06:57:23;100654.44;;;13.74;74.17
11643;BME280;5877;50.930;6.918;2022-10-16T06:59:49;100504.09;;;12.64;73.91
11643;BME280;5877;50.930;6.918;2022-10-16T07:02:20;100690.91;;;13.89;74.03
11643;BME280;5877;50.930;6.918;2022-10-16T07:04:47;100834.22;;;15.00;73.65
11643;BME280;5877;50.930;6.918;2022-10-16T07:07:14;100763.47;;;14.50;72.97
11643;BME280;5877;50.930;6.918;2022-10-16T07:09:40;100715.94;;;14.38;72.69
11643;BME280;5877;50.930;6.918;2022-10-16T07:12:07;100751.44;;;14.82;72.50
11643;BME280;5877;50.930;6.918;2022-10-16T07:14:33;100802.50;;;15.28;71.79
11643;BME280;5877;50.930;6.918;2022-10-16T07:17:00;100680.38;;;14.69;70.88
11643;BME280;5877;50.930;6.918;2022-10-16T07:19:27;100853.44;;;16.96;67.53
11643;BME280;5877;50.930;6.918;2022-10-16T07:21:58;100659.03;;;16.15;65.09
11643;BME280;5877;50.930;6.918;2022-10-16T07:24:25;100683.28;;;16.07;65.14
11643;BME280;5877;50.930;6.918;2022-10-16T07:26:55;100882.63;;;16.96;66.53
11643;BME280;5877;50.930;6.918;2022-10-16T07:29:21;100547.47;;;14.69;66.60
11643;BME280;5877;50.930;6.918;2022-10-16T07:31:49;100733.16;;;15.76;66.89
11643;BME280;5877;50.930;6.918;2022-10-16T07:34:17;100891.59;;;16.73;66.62
11643;BME280;5877;50.930;6.918;2022-10-16T07:36:47;100890.06;;;16.77;66.85
11643;BME280;5877;50.930;6.918;2022-10-16T07:39:14;100709.75;;;15.68;66.64
11643;BME280;5877;50.930;6.918;2022-10-16T07:41:40;100896.63;;;16.92;66.54
11643;BME280;5877;50.930;6.918;2022-10-16T07:44:07;100708.47;;;16.31;65.12
11643;BME280;5877;50.930;6.918;2022-10-16T07:46:35;100824.44;;;17.11;64.72
11643;BME280;5877;50.930;6.918;2022-10-16T07:49:03;100662.91;;;16.29;64.01
11643;BME280;5877;50.930;6.918;2022-10-16T07:51:29;100750.38;;;17.05;62.93
11643;BME280;5877;50.930;6.918;2022-10-16T07:53:56;100772.31;;;17.86;61.09
11643;BME280;5877;50.930;6.918;2022-10-16T07:56:23;100868.13;;;19.36;58.22
11643;BME280;5877;50.930;6.918;2022-10-16T07:58:50;100819.72;;;19.85;55.82
11643;BME280;5877;50.930;6.918;2022-10-16T08:01:17;100927.09;;;20.31;55.47
11643;BME280;5877;50.930;6.918;2022-10-16T08:03:49;100924.41;;;19.81;57.15
11643;BME280;5877;50.930;6.918;2022-10-16T08:06:17;100923.59;;;19.70;57.53
11643;BME280;5877;50.930;6.918;2022-10-16T08:08:49;100895.09;;;19.65;57.21
11643;BME280;5877;50.930;6.918;2022-10-16T08:11:16;100934.03;;;20.12;56.11
11643;BME280;5877;50.930;6.918;2022-10-16T08:13:42;100477.03;;;17.89;54.26
11643;BME280;5877;50.930;6.918;2022-10-16T08:16:09;100609.94;;;19.52;52.42
11643;BME280;5877;50.930;6.918;2022-10-16T08:18:37;100941.94;;;22.26;51.08
11643;BME280;5877;50.930;6.918;2022-10-16T08:21:05;100944.06;;;23.06;48.99
11643;BME280;5877;50.930;6.918;2022-10-16T08:23:33;100936.56;;;23.83;47.05
11643;BME280;5877;50.930;6.918;2022-10-16T08:26:08;100537.59;;;21.67;45.80
11643;BME280;5877;50.930;6.918;2022-10-16T08:28:35;100754.84;;;23.34;44.72
11643;BME280;5877;50.930;6.918;2022-10-16T08:31:06;100940.56;;;24.78;43.79
11643;BME280;5877;50.930;6.918;2022-10-16T08:33:33;100830.47;;;23.44;44.76
11643;BME280;5877;50.930;6.918;2022-10-16T08:36:02;100927.31;;;23.38;45.99
11643;BME280;5877;50.930;6.918;2022-10-16T08:38:29;100916.81;;;23.22;46.47
11643;BME280;5877;50.930;6.918;2022-10-16T08:44:24;100916.88;;;23.55;45.37
11643;BME280;5877;50.930;6.918;2022-10-16T08:47:15;100977.72;;;24.24;44.75
11643;BME280;5877;50.930;6.918;2022-10-16T08:50:02;100904.94;;;23.99;44.05
11643;BME280;5877;50.930;6.918;2022-10-16T08:52:40;100881.59;;;23.67;43.51
11643;BME280;5877;50.930;6.918;2022-10-16T08:55:45;100976.50;;;24.36;43.33
11643;BME280;5877;50.930;6.918;2022-10-16T08:58:23;100849.94;;;23.50;43.55
11643;BME280;5877;50.930;6.918;2022-10-16T09:00:59;100938.94;;;23.84;43.85
11643;BME280;5877;50.930;6.918;2022-10-16T09:03:52;100969.09;;;23.76;44.88
11643;BME280;5877;50.930;6.918;2022-10-16T09:06:46;100907.19;;;23.40;44.27
11643;BME280;5877;50.930;6.918;2022-10-16T09:09:41;100919.63;;;23.31;44.54
11643;BME280;5877;50.930;6.918;2022-10-16T09:12:16;100900.66;;;23.09;45.25
11643;BME280;5877;50.930;6.918;2022-10-16T09:15:15;100916.66;;;23.14;45.11
11643;BME280;5877;50.930;6.918;2022-10-16T09:18:06;100988.53;;;23.68;45.03
11643;BME280;5877;50.930;6.918;2022-10-16T09:20:59;100967.63;;;23.46;45.66
11643;BME280;5877;50.930;6.918;2022-10-16T09:23:29;100983.63;;;23.51;45.10
11643;BME280;5877;50.930;6.918;2022-10-16T09:25:58;100990.31;;;23.11;44.04
11643;BME280;5877;50.930;6.918;2022-10-16T09:28:25;100909.59;;;22.22;43.87
11643;BME280;5877;50.930;6.918;2022-10-16T09:30:52;100891.59;;;21.65;45.06
11643;BME280;5877;50.930;6.918;2022-10-16T09:33:23;100619.16;;;19.80;45.38
11643;BME280;5877;50.930;6.918;2022-10-16T09:35:54;100837.47;;;21.05;45.85
11643;BME280;5877;50.930;6.918;2022-10-16T09:38:34;100990.50;;;21.55;46.77
11643;BME280;5877;50.930;6.918;2022-10-16T09:41:20;100989.31;;;21.27;46.79
11643;BME280;5877;50.930;6.918;2022-10-16T09:44:01;100990.13;;;21.12;47.78
11643;BME280;5877;50.930;6.918;2022-10-16T09:46:34;100995.75;;;21.05;48.21
11643;BME280;5877;50.930;6.918;2022-10-16T09:49:04;101003.28;;;20.83;48.29
11643;BME280;5877;50.930;6.918;2022-10-16T09:51:34;100743.56;;;19.13;48.33
11643;BME280;5877;50.930;6.918;2022-10-16T09:54:14;100812.50;;;19.45;48.99
11643;BME280;5877;50.930;6.918;2022-10-16T09:56:40;100950.81;;;20.13;49.33
11643;BME280;5877;50.930;6.918;2022-10-16T09:59:22;100887.06;;;19.50;48.79
11643;BME280;5877;50.930;6.918;2022-10-16T10:01:54;100893.50;;;19.74;48.86
11643;BME280;5877;50.930;6.918;2022-10-16T10:04:24;100786.94;;;19.13;48.89
11643;BME280;5877;50.930;6.918;2022-10-16T10:06:54;100704.06;;;18.59;48.68
11643;BME280;5877;50.930;6.918;2022-10-16T10:09:37;100936.16;;;19.95;49.40
11643;BME280;5877;50.930;6.918;2022-10-16T10:12:05;101000.94;;;20.26;49.63
11643;BME280;5877;50.930;6.918;2022-10-16T10:14:45;100937.19;;;19.73;49.93
11643;BME280;5877;50.930;6.918;2022-10-16T10:17:19;100988.66;;;20.09;49.96
11643;BME280;5877;50.930;6.918;2022-10-16T10:19:57;100911.06;;;19.60;50.20
11643;BME280;5877;50.930;6.918;2022-10-16T10:22:42;100918.56;;;19.84;50.39
11643;BME280;5877;50.930;6.918;2022-10-16T10:30:27;100986.84;;;20.40;49.11
11643;BME280;5877;50.930;6.918;2022-10-16T10:33:01;100988.41;;;20.62;48.54
11643;BME280;5877;50.930;6.918;2022-10-16T10:35:47;100990.81;;;20.68;48.06
11643;BME280;5877;50.930;6.918;2022-10-16T10:43:37;100997.81;;;21.39;46.76
11643;BME280;5877;50.930;6.918;2022-10-16T10:46:11;101005.25;;;21.47;46.68
11643;BME280;5877;50.930;6.918;2022-10-16T10:51:28;100993.97;;;21.60;46.08
11643;BME280;5877;50.930;6.918;2022-10-16T11:07:49;100822.69;;;20.79;44.48
11643;BME280;5877;50.930;6.918;2022-10-16T11:10:22;100872.69;;;21.07;44.49
11643;BME280;5877;50.930;6.918;2022-10-16T11:12:56;101002.31;;;21.93;43.70
11643;BME280;5877;50.930;6.918;2022-10-16T11:15:34;100864.38;;;21.24;43.93
11643;BME280;5877;50.930;6.918;2022-10-16T11:18:08;100909.09;;;21.47;44.63
11643;BME280;5877;50.930;6.918;2022-10-16T11:20:42;101003.81;;;22.14;43.98
11643;BME280;5877;50.930;6.918;2022-10-16T11:25:50;100913.00;;;21.60;43.38
11643;BME280;5877;50.930;6.918;2022-10-16T11:28:27;100718.06;;;20.42;43.40
11643;BME280;5877;50.930;6.918;2022-10-16T11:37:20;101007.03;;;22.74;42.38
11643;BME280;5877;50.930;6.918;2022-10-16T11:39:29;100850.41;;;21.71;42.26
11643;BME280;5877;50.930;6.918;2022-10-16T11:42:21;101016.75;;;22.65;42.17
11643;BME280;5877;50.930;6.918;2022-10-16T11:47:45;100876.13;;;21.96;41.18
11643;BME280;5877;50.930;6.918;2022-10-16T11:50:48;100826.84;;;21.78;41.24
11643;BME280;5877;50.930;6.918;2022-10-16T11:53:32;101022.75;;;23.10;40.94
11643;BME280;5877;50.930;6.918;2022-10-16T11:56:03;100969.47;;;23.08;40.41
11643;BME280;5877;50.930;6.918;2022-10-16T12:01:20;101018.50;;;23.89;39.37
11643;BME280;5877;50.930;6.918;2022-10-16T12:06:58;100961.22;;;23.05;40.11
11643;BME280;5877;50.930;6.918;2022-10-16T12:09:29;100990.91;;;23.08;40.35
11643;BME280;5877;50.930;6.918;2022-10-16T12:11:57;100719.72;;;21.75;39.51
11643;BME280;5877;50.930;6.918;2022-10-16T12:17:02;101022.94;;;23.80;39.22
11643;BME280;5877;50.930;6.918;2022-10-16T12:19:32;100989.06;;;23.46;38.92
11643;BME280;5877;50.930;6.918;2022-10-16T12:22:00;101026.19;;;23.58;39.25
11643;BME280;5877;50.930;6.918;2022-10-16T12:24:34;101027.44;;;23.42;39.74
11643;BME280;5877;50.930;6.918;2022-10-16T12:27:03;100997.09;;;23.46;39.16
11643;BME280;5877;50.930;6.918;2022-10-16T12:29:41;100892.09;;;23.07;39.32
11643;BME280;5877;50.930;6.918;2022-10-16T12:35:22;100850.56;;;22.90;38.30
11643;BME280;5877;50.930;6.918;2022-10-16T12:37:50;100993.59;;;23.88;38.19
11643;BME280;5877;50.930;6.918;2022-10-16T12:42:53;100853.75;;;23.30;38.39
11643;BME280;5877;50.930;6.918;2022-10-16T12:45:24;100987.81;;;24.33;38.00
11643;BME280;5877;50.930;6.918;2022-10-16T12:47:53;100884.94;;;23.21;38.35
11643;BME280;5877;50.930;6.918;2022-10-16T12:52:50;100904.72;;;22.82;39.16
11643;BME280;5877;50.930;6.918;2022-10-16T12:55:18;100852.25;;;22.33;39.78
11643;BME280;5877;50.930;6.918;2022-10-16T12:58:28;101026.69;;;23.17;39.95
11643;BME280;5877;50.930;6.918;2022-10-16T13:07:13;100958.13;;;23.16;40.53
11643;BME280;5877;50.930;6.918;2022-10-16T13:10:15;100936.00;;;23.29;39.20
11643;BME280;5877;50.930;6.918;2022-10-16T13:26:45;100975.19;;;22.73;40.05
11643;BME280;5877;50.930;6.918;2022-10-16T13:29:15;100892.03;;;22.16;40.54
11643;BME280;5877;50.930;6.918;2022-10-16T13:31:43;100959.28;;;22.28;41.36
11643;BME280;5877;50.930;6.918;2022-10-16T13:34:18;100830.91;;;21.70;41.26
11643;BME280;5877;50.930;6.918;2022-10-16T13:36:51;100983.13;;;22.54;40.82
11643;BME280;5877;50.930;6.918;2022-10-16T13:39:30;101010.50;;;22.46;41.38
11643;BME280;5877;50.930;6.918;2022-10-16T13:44:40;100802.06;;;20.89;42.56
11643;BME280;5877;50.930;6.918;2022-10-16T13:47:20;100922.13;;;21.93;41.91
11643;BME280;5877;50.930;6.918;2022-10-16T13:50:03;100936.50;;;22.36;41.79
11643;BME280;5877;50.930;6.918;2022-10-16T13:52:30;101007.81;;;22.75;41.56
11643;BME280;5877;50.930;6.918;2022-10-16T13:54:57;100820.34;;;21.16;42.05
11643;BME280;5877;50.930;6.918;2022-10-16T13:57:28;100716.22;;;20.28;43.10
11643;BME280;5877;50.930;6.918;2022-10-16T13:59:54;100862.22;;;21.21;42.78
11643;BME280;5877;50.930;6.918;2022-10-16T14:02:35;100978.13;;;22.13;42.60
11643;BME280;5877;50.930;6.918;2022-10-16T14:05:08;100891.84;;;21.68;42.28
11643;BME280;5877;50.930;6.918;2022-10-16T14:07:37;100895.63;;;21.62;43.14
11643;BME280;5877;50.930;6.918;2022-10-16T14:10:07;100954.81;;;21.80;43.16
11643;BME280;5877;50.930;6.918;2022-10-16T14:12:44;101015.31;;;22.10;43.65
11643;BME280;5877;50.930;6.918;2022-10-16T14:15:18;100968.81;;;21.66;44.22
11643;BME280;5877;50.930;6.918;2022-10-16T14:17:48;101019.59;;;22.11;43.51
11643;BME280;5877;50.930;6.918;2022-10-16T14:20:16;100655.97;;;19.67;44.05
11643;BME280;5877;50.930;6.918;2022-10-16T14:22:43;100849.34;;;20.84;44.53
11643;BME280;5877;50.930;6.918;2022-10-16T14:27:57;101008.13;;;21.56;45.66
11643;BME280;5877;50.930;6.918;2022-10-16T14:30:24;100889.97;;;20.70;45.86
11643;BME280;5877;50.930;6.918;2022-10-16T14:35:31;100993.50;;;21.43;46.48
11643;BME280;5877;50.930;6.918;2022-10-16T14:37:59;101003.72;;;21.16;47.17
11643;BME280;5877;50.930;6.918;2022-10-16T14:40:30;100887.63;;;20.28;47.23
11643;BME280;5877;50.930;6.918;2022-10-16T14:42:58;101002.13;;;21.15;47.68
11643;BME280;5877;50.930;6.918;2022-10-16T14:45:32;100999.22;;;21.06;48.23
11643;BME280;5877;50.930;6.918;2022-10-16T14:48:03;100703.91;;;19.11;48.50
11643;BME280;5877;50.930;6.918;2022-10-16T14:50:31;100953.19;;;20.70;48.71
11643;BME280;5877;50.930;6.918;2022-10-16T14:52:58;100947.59;;;20.71;48.85
11643;BME280;5877;50.930;6.918;2022-10-16T14:55:25;100614.78;;;18.84;48.20
11643;BME280;5877;50.930;6.918;2022-10-16T14:57:52;100962.16;;;20.94;48.30
11643;BME280;5877;50.930;6.918;2022-10-16T15:00:26;100564.22;;;18.38;48.83